sensor_id;sensor_type;location;lat;lon;timestamp;P1;durP1;ratioP1;P2;durP2;ratioP2
5945;SDS011;2998;48.206;16.394;2023-01-09T00:00:19;23.33;;;14.97;;
5945;SDS011;2998;48.206;16.394;2023-01-09T00:02:47;21.43;;;14.87;;
5945;SDS011;2998;48.206;16.394;2023-01-09T00:05:16;17.30;;;13.70;;
5945;SDS011;2998;48.206;16.394;2023-01-09T00:07:46;18.70;;;13.80;;
5945;SDS011;2998;48.206;16.394;2023-01-09T00:10:14;16.93;;;13.90;;
5945;SDS011;2998;48.206;16.394;2023-01-09T00:12:42;17.10;;;13.87;;
5945;SDS011;2998;48.206;16.394;2023-01-09T00:15:10;18.60;;;13.50;;
5945;SDS011;2998;48.206;16.394;2023-01-09T00:17:38;58.03;;;31.13;;
5945;SDS011;2998;48.206;16.394;2023-01-09T00:20:08;34.97;;;21.67;;
5945;SDS011;2998;48.206;16.394;2023-01-09T00:22:37;27.10;;;18.63;;
5945;SDS011;2998;48.206;16.394;2023-01-09T00:25:07;28.83;;;18.77;;
5945;SDS011;2998;48.206;16.394;2023-01-09T00:27:35;24.90;;;17.97;;
5945;SDS011;2998;48.206;16.394;2023-01-09T00:30:04;47.80;;;28.53;;
5945;SDS011;2998;48.206;16.394;2023-01-09T00:32:32;45.53;;;27.27;;
5945;SDS011;2998;48.206;16.394;2023-01-09T00:35:00;45.57;;;28.47;;
5945;SDS011;2998;48.206;16.394;2023-01-09T00:37:28;31.03;;;19.20;;
5945;SDS011;2998;48.206;16.394;2023-01-09T00:39:56;15.90;;;12.60;;
5945;SDS011;2998;48.206;16.394;2023-01-09T00:42:26;16.60;;;12.00;;
5945;SDS011;2998;48.206;16.394;2023-01-09T00:44:58;13.60;;;11.27;;
5945;SDS011;2998;48.206;16.394;2023-01-09T00:47:28;15.47;;;11.73;;
5945;SDS011;2998;48.206;16.394;2023-01-09T00:49:59;15.77;;;13.07;;
5945;SDS011;2998;48.206;16.394;2023-01-09T00:52:32;18.10;;;14.50;;
5945;SDS011;2998;48.206;16.394;2023-01-09T00:55:01;19.13;;;14.40;;
5945;SDS011;2998;48.206;16.394;2023-01-09T00:57:30;22.90;;;15.27;;
5945;SDS011;2998;48.206;16.394;2023-01-09T00:59:58;21.10;;;15.47;;
5945;SDS011;2998;48.206;16.394;2023-01-09T01:02:26;19.13;;;14.80;;
5945;SDS011;2998;48.206;16.394;2023-01-09T01:04:54;17.13;;;14.67;;
5945;SDS011;2998;48.206;16.394;2023-01-09T01:07:40;16.70;;;13.30;;
5945;SDS011;2998;48.206;16.394;2023-01-09T01:10:10;12.90;;;10.50;;
5945;SDS011;2998;48.206;16.394;2023-01-09T01:12:40;11.70;;;10.07;;
5945;SDS011;2998;48.206;16.394;2023-01-09T01:15:09;15.47;;;11.47;;
5945;SDS011;2998;48.206;16.394;2023-01-09T01:17:38;10.97;;;9.30;;
5945;SDS011;2998;48.206;16.394;2023-01-09T01:20:07;11.77;;;10.53;;
5945;SDS011;2998;48.206;16.394;2023-01-09T01:22:37;19.23;;;14.20;;
5945;SDS011;2998;48.206;16.394;2023-01-09T01:25:08;18.67;;;14.53;;
5945;SDS011;2998;48.206;16.394;2023-01-09T01:27:36;17.20;;;13.33;;
5945;SDS011;2998;48.206;16.394;2023-01-09T01:30:07;15.60;;;13.00;;
5945;SDS011;2998;48.206;16.394;2023-01-09T01:32:36;13.93;;;11.77;;
5945;SDS011;2998;48.206;16.394;2023-01-09T01:35:04;17.00;;;12.50;;
5945;SDS011;2998;48.206;16.394;2023-01-09T01:37:33;15.13;;;12.30;;
5945;SDS011;2998;48.206;16.394;2023-01-09T01:40:02;14.67;;;11.90;;
5945;SDS011;2998;48.206;16.394;2023-01-09T01:42:30;12.97;;;11.30;;
5945;SDS011;2998;48.206;16.394;2023-01-09T01:45:00;16.77;;;12.40;;
5945;SDS011;2998;48.206;16.394;2023-01-09T01:47:34;18.27;;;12.43;;
5945;SDS011;2998;48.206;16.394;2023-01-09T01:50:07;15.90;;;12.57;;
5945;SDS011;2998;48.206;16.394;2023-01-09T01:52:37;14.80;;;12.00;;
5945;SDS011;2998;48.206;16.394;2023-01-09T01:55:06;16.07;;;12.73;;
5945;SDS011;2998;48.206;16.394;2023-01-09T01:57:35;17.60;;;13.07;;
5945;SDS011;2998;48.206;16.394;2023-01-09T02:00:04;17.47;;;13.10;;
5945;SDS011;2998;48.206;16.394;2023-01-09T02:02:35;22.77;;;14.57;;
5945;SDS011;2998;48.206;16.394;2023-01-09T02:05:03;11.60;;;10.23;;
5945;SDS011;2998;48.206;16.394;2023-01-09T02:07:32;22.60;;;16.13;;
5945;SDS011;2998;48.206;16.394;2023-01-09T02:10:00;18.10;;;12.33;;
5945;SDS011;2998;48.206;16.394;2023-01-09T02:12:28;14.57;;;11.00;;
5945;SDS011;2998;48.206;16.394;2023-01-09T02:14:56;15.47;;;10.60;;
5945;SDS011;2998;48.206;16.394;2023-01-09T02:20:37;15.60;;;12.37;;
5945;SDS011;2998;48.206;16.394;2023-01-09T02:29:40;14.07;;;11.77;;
5945;SDS011;2998;48.206;16.394;2023-01-09T02:32:31;16.23;;;13.00;;
5945;SDS011;2998;48.206;16.394;2023-01-09T02:35:06;14.23;;;11.33;;
5945;SDS011;2998;48.206;16.394;2023-01-09T02:37:40;26.90;;;18.63;;
5945;SDS011;2998;48.206;16.394;2023-01-09T02:40:14;20.67;;;14.80;;
5945;SDS011;2998;48.206;16.394;2023-01-09T02:42:47;20.30;;;15.80;;
5945;SDS011;2998;48.206;16.394;2023-01-09T02:45:15;17.27;;;13.80;;
5945;SDS011;2998;48.206;16.394;2023-01-09T02:47:45;15.67;;;11.90;;
5945;SDS011;2998;48.206;16.394;2023-01-09T02:50:15;16.00;;;12.17;;
5945;SDS011;2998;48.206;16.394;2023-01-09T02:52:58;14.00;;;11.50;;
5945;SDS011;2998;48.206;16.394;2023-01-09T02:55:44;14.00;;;11.20;;
5945;SDS011;2998;48.206;16.394;2023-01-09T02:58:18;15.80;;;11.60;;
5945;SDS011;2998;48.206;16.394;2023-01-09T03:01:00;15.63;;;12.43;;
5945;SDS011;2998;48.206;16.394;2023-01-09T03:03:34;21.17;;;13.77;;
5945;SDS011;2998;48.206;16.394;2023-01-09T03:06:05;14.67;;;12.60;;
5945;SDS011;2998;48.206;16.394;2023-01-09T03:08:37;19.93;;;13.37;;
5945;SDS011;2998;48.206;16.394;2023-01-09T03:11:07;16.07;;;12.50;;
5945;SDS011;2998;48.206;16.394;2023-01-09T03:13:38;15.13;;;11.77;;
5945;SDS011;2998;48.206;16.394;2023-01-09T03:16:10;17.17;;;11.47;;
5945;SDS011;2998;48.206;16.394;2023-01-09T03:18:42;13.43;;;11.03;;
5945;SDS011;2998;48.206;16.394;2023-01-09T03:21:10;15.43;;;12.20;;
5945;SDS011;2998;48.206;16.394;2023-01-09T03:23:49;17.73;;;12.47;;
5945;SDS011;2998;48.206;16.394;2023-01-09T03:26:17;17.07;;;12.13;;
5945;SDS011;2998;48.206;16.394;2023-01-09T03:28:45;21.43;;;16.17;;
5945;SDS011;2998;48.206;16.394;2023-01-09T03:31:14;18.60;;;12.57;;
5945;SDS011;2998;48.206;16.394;2023-01-09T03:33:43;16.40;;;11.40;;
5945;SDS011;2998;48.206;16.394;2023-01-09T03:36:12;21.10;;;9.17;;
5945;SDS011;2998;48.206;16.394;2023-01-09T03:38:40;13.70;;;10.83;;
5945;SDS011;2998;48.206;16.394;2023-01-09T03:41:08;13.70;;;9.47;;
5945;SDS011;2998;48.206;16.394;2023-01-09T03:43:36;16.93;;;10.17;;
5945;SDS011;2998;48.206;16.394;2023-01-09T03:46:04;21.53;;;16.17;;
5945;SDS011;2998;48.206;16.394;2023-01-09T03:48:32;26.53;;;16.50;;
5945;SDS011;2998;48.206;16.394;2023-01-09T03:51:02;20.60;;;14.60;;
5945;SDS011;2998;48.206;16.394;2023-01-09T03:53:30;17.77;;;13.17;;
5945;SDS011;2998;48.206;16.394;2023-01-09T03:55:57;14.73;;;12.20;;
5945;SDS011;2998;48.206;16.394;2023-01-09T03:58:25;14.73;;;12.17;;
5945;SDS011;2998;48.206;16.394;2023-01-09T04:00:56;15.83;;;11.40;;
5945;SDS011;2998;48.206;16.394;2023-01-09T04:03:24;12.40;;;11.13;;
5945;SDS011;2998;48.206;16.394;2023-01-09T04:05:53;12.60;;;10.17;;
5945;SDS011;2998;48.206;16.394;2023-01-09T04:08:22;9.90;;;8.90;;
5945;SDS011;2998;48.206;16.394;2023-01-09T04:10:50;13.43;;;11.03;;
5945;SDS011;2998;48.206;16.394;2023-01-09T04:13:18;8.90;;;8.03;;
5945;SDS011;2998;48.206;16.394;2023-01-09T04:15:46;12.67;;;9.47;;
5945;SDS011;2998;48.206;16.394;2023-01-09T04:18:14;16.73;;;10.60;;
5945;SDS011;2998;48.206;16.394;2023-01-09T04:20:45;10.77;;;9.67;;
5945;SDS011;2998;48.206;16.394;2023-01-09T04:23:13;13.67;;;9.57;;
5945;SDS011;2998;48.206;16.394;2023-01-09T04:25:42;11.40;;;9.80;;
5945;SDS011;2998;48.206;16.394;2023-01-09T04:28:11;16.00;;;10.03;;
5945;SDS011;2998;48.206;16.394;2023-01-09T04:30:39;16.97;;;12.00;;
5945;SDS011;2998;48.206;16.394;2023-01-09T04:33:07;15.70;;;10.70;;
5945;SDS011;2998;48.206;16.394;2023-01-09T04:35:34;11.93;;;10.13;;
5945;SDS011;2998;48.206;16.394;2023-01-09T04:38:02;12.13;;;10.73;;
5945;SDS011;2998;48.206;16.394;2023-01-09T04:40:30;12.27;;;9.37;;
5945;SDS011;2998;48.206;16.394;2023-01-09T04:43:00;11.10;;;9.43;;
5945;SDS011;2998;48.206;16.394;2023-01-09T04:45:27;10.90;;;9.70;;
5945;SDS011;2998;48.206;16.394;2023-01-09T04:47:55;14.50;;;9.73;;
5945;SDS011;2998;48.206;16.394;2023-01-09T04:50:23;15.77;;;11.33;;
5945;SDS011;2998;48.206;16.394;2023-01-09T04:52:51;12.20;;;9.20;;
5945;SDS011;2998;48.206;16.394;2023-01-09T04:55:19;22.43;;;10.00;;
5945;SDS011;2998;48.206;16.394;2023-01-09T04:57:47;11.67;;;9.80;;
5945;SDS011;2998;48.206;16.394;2023-01-09T05:00:17;17.03;;;13.07;;
5945;SDS011;2998;48.206;16.394;2023-01-09T05:02:45;15.13;;;12.07;;
5945;SDS011;2998;48.206;16.394;2023-01-09T05:05:13;16.60;;;12.20;;
5945;SDS011;2998;48.206;16.394;2023-01-09T05:07:41;15.87;;;12.63;;
5945;SDS011;2998;48.206;16.394;2023-01-09T05:10:09;19.07;;;12.17;;
5945;SDS011;2998;48.206;16.394;2023-01-09T05:12:38;15.53;;;12.63;;
5945;SDS011;2998;48.206;16.394;2023-01-09T05:15:06;18.50;;;12.73;;
5945;SDS011;2998;48.206;16.394;2023-01-09T05:17:36;16.97;;;12.07;;
5945;SDS011;2998;48.206;16.394;2023-01-09T05:20:04;19.50;;;12.50;;
5945;SDS011;2998;48.206;16.394;2023-01-09T05:22:33;15.10;;;13.20;;
5945;SDS011;2998;48.206;16.394;2023-01-09T05:25:01;19.37;;;15.07;;
5945;SDS011;2998;48.206;16.394;2023-01-09T05:27:29;20.30;;;15.80;;
5945;SDS011;2998;48.206;16.394;2023-01-09T05:29:56;22.70;;;15.10;;
5945;SDS011;2998;48.206;16.394;2023-01-09T05:32:24;42.60;;;28.70;;
5945;SDS011;2998;48.206;16.394;2023-01-09T05:34:54;57.83;;;36.30;;
5945;SDS011;2998;48.206;16.394;2023-01-09T05:37:21;47.53;;;33.83;;
5945;SDS011;2998;48.206;16.394;2023-01-09T05:39:49;20.90;;;13.70;;
5945;SDS011;2998;48.206;16.394;2023-01-09T05:42:17;18.60;;;13.10;;
5945;SDS011;2998;48.206;16.394;2023-01-09T05:44:45;17.00;;;12.30;;
5945;SDS011;2998;48.206;16.394;2023-01-09T05:47:13;19.30;;;12.60;;
5945;SDS011;2998;48.206;16.394;2023-01-09T05:49:41;20.80;;;11.00;;
5945;SDS011;2998;48.206;16.394;2023-01-09T05:52:10;17.80;;;11.03;;
5945;SDS011;2998;48.206;16.394;2023-01-09T05:54:38;29.13;;;15.93;;
5945;SDS011;2998;48.206;16.394;2023-01-09T05:57:06;20.77;;;14.60;;
5945;SDS011;2998;48.206;16.394;2023-01-09T05:59:34;25.93;;;16.60;;
5945;SDS011;2998;48.206;16.394;2023-01-09T06:02:02;22.63;;;16.03;;
5945;SDS011;2998;48.206;16.394;2023-01-09T06:04:30;23.23;;;12.80;;
5945;SDS011;2998;48.206;16.394;2023-01-09T06:06:57;23.93;;;14.63;;
5945;SDS011;2998;48.206;16.394;2023-01-09T06:09:27;19.10;;;12.17;;
5945;SDS011;2998;48.206;16.394;2023-01-09T06:11:56;21.67;;;14.50;;
5945;SDS011;2998;48.206;16.394;2023-01-09T06:14:23;19.73;;;15.80;;
5945;SDS011;2998;48.206;16.394;2023-01-09T06:16:51;23.30;;;14.87;;
5945;SDS011;2998;48.206;16.394;2023-01-09T06:19:19;33.63;;;15.93;;
5945;SDS011;2998;48.206;16.394;2023-01-09T06:21:47;36.50;;;13.90;;
5945;SDS011;2998;48.206;16.394;2023-01-09T06:24:17;34.57;;;21.77;;
5945;SDS011;2998;48.206;16.394;2023-01-09T06:26:46;26.67;;;16.97;;
5945;SDS011;2998;48.206;16.394;2023-01-09T06:29:14;26.10;;;18.10;;
5945;SDS011;2998;48.206;16.394;2023-01-09T06:31:42;39.37;;;17.70;;
5945;SDS011;2998;48.206;16.394;2023-01-09T06:34:10;30.47;;;16.13;;
5945;SDS011;2998;48.206;16.394;2023-01-09T06:36:38;21.90;;;13.50;;
5945;SDS011;2998;48.206;16.394;2023-01-09T06:39:06;26.77;;;15.50;;
5945;SDS011;2998;48.206;16.394;2023-01-09T06:41:34;32.00;;;16.33;;
5945;SDS011;2998;48.206;16.394;2023-01-09T06:44:03;28.30;;;17.50;;
5945;SDS011;2998;48.206;16.394;2023-01-09T06:46:31;27.57;;;18.83;;
5945;SDS011;2998;48.206;16.394;2023-01-09T06:48:59;33.87;;;18.77;;
5945;SDS011;2998;48.206;16.394;2023-01-09T06:51:27;23.00;;;15.60;;
5945;SDS011;2998;48.206;16.394;2023-01-09T06:53:55;34.40;;;23.50;;
5945;SDS011;2998;48.206;16.394;2023-01-09T06:56:23;28.80;;;17.00;;
5945;SDS011;2998;48.206;16.394;2023-01-09T06:58:51;26.17;;;16.67;;
5945;SDS011;2998;48.206;16.394;2023-01-09T07:01:20;23.23;;;15.73;;
5945;SDS011;2998;48.206;16.394;2023-01-09T07:03:49;28.20;;;17.37;;
5945;SDS011;2998;48.206;16.394;2023-01-09T07:06:17;25.70;;;16.27;;
5945;SDS011;2998;48.206;16.394;2023-01-09T07:08:45;31.10;;;16.97;;
5945;SDS011;2998;48.206;16.394;2023-01-09T07:11:13;28.67;;;17.03;;
5945;SDS011;2998;48.206;16.394;2023-01-09T07:13:41;30.60;;;16.90;;
5945;SDS011;2998;48.206;16.394;2023-01-09T07:16:09;34.27;;;17.53;;
5945;SDS011;2998;48.206;16.394;2023-01-09T07:18:38;25.20;;;16.57;;
5945;SDS011;2998;48.206;16.394;2023-01-09T07:21:06;31.50;;;18.80;;
5945;SDS011;2998;48.206;16.394;2023-01-09T07:23:34;36.83;;;18.90;;
5945;SDS011;2998;48.206;16.394;2023-01-09T07:26:02;29.93;;;18.60;;
5945;SDS011;2998;48.206;16.394;2023-01-09T07:28:30;34.10;;;18.93;;
5945;SDS011;2998;48.206;16.394;2023-01-09T07:30:58;39.40;;;21.83;;
5945;SDS011;2998;48.206;16.394;2023-01-09T07:33:29;45.37;;;22.40;;
5945;SDS011;2998;48.206;16.394;2023-01-09T07:35:59;42.27;;;23.53;;
5945;SDS011;2998;48.206;16.394;2023-01-09T07:38:27;54.00;;;25.80;;
5945;SDS011;2998;48.206;16.394;2023-01-09T07:40:55;56.93;;;26.23;;
5945;SDS011;2998;48.206;16.394;2023-01-09T07:43:23;53.70;;;26.13;;
5945;SDS011;2998;48.206;16.394;2023-01-09T07:45:51;62.70;;;29.90;;
5945;SDS011;2998;48.206;16.394;2023-01-09T07:48:19;65.93;;;30.07;;
5945;SDS011;2998;48.206;16.394;2023-01-09T07:50:47;60.73;;;28.60;;
5945;SDS011;2998;48.206;16.394;2023-01-09T07:53:16;74.73;;;32.20;;
5945;SDS011;2998;48.206;16.394;2023-01-09T07:55:44;70.13;;;31.07;;
5945;SDS011;2998;48.206;16.394;2023-01-09T07:58:12;77.00;;;36.20;;
5945;SDS011;2998;48.206;16.394;2023-01-09T08:00:40;71.13;;;32.90;;
5945;SDS011;2998;48.206;16.394;2023-01-09T08:03:08;71.73;;;34.27;;
5945;SDS011;2998;48.206;16.394;2023-01-09T08:05:36;75.87;;;35.67;;
5945;SDS011;2998;48.206;16.394;2023-01-09T08:08:04;82.53;;;35.90;;
5945;SDS011;2998;48.206;16.394;2023-01-09T08:10:34;84.27;;;34.60;;
5945;SDS011;2998;48.206;16.394;2023-01-09T08:13:01;70.40;;;34.00;;
5945;SDS011;2998;48.206;16.394;2023-01-09T08:15:29;77.40;;;35.47;;
5945;SDS011;2998;48.206;16.394;2023-01-09T08:17:58;84.80;;;39.00;;
5945;SDS011;2998;48.206;16.394;2023-01-09T08:20:26;73.67;;;34.83;;
5945;SDS011;2998;48.206;16.394;2023-01-09T08:22:54;63.83;;;33.23;;
5945;SDS011;2998;48.206;16.394;2023-01-09T08:25:22;74.80;;;33.67;;
5945;SDS011;2998;48.206;16.394;2023-01-09T08:27:52;76.80;;;33.57;;
5945;SDS011;2998;48.206;16.394;2023-01-09T08:30:20;72.30;;;34.80;;
5945;SDS011;2998;48.206;16.394;2023-01-09T08:32:48;78.80;;;36.10;;
5945;SDS011;2998;48.206;16.394;2023-01-09T08:35:17;81.33;;;35.47;;
5945;SDS011;2998;48.206;16.394;2023-01-09T08:37:45;74.53;;;34.13;;
5945;SDS011;2998;48.206;16.394;2023-01-09T08:40:14;67.70;;;31.87;;
5945;SDS011;2998;48.206;16.394;2023-01-09T08:42:43;70.33;;;32.60;;
5945;SDS011;2998;48.206;16.394;2023-01-09T08:45:31;59.83;;;32.93;;
5945;SDS011;2998;48.206;16.394;2023-01-09T08:48:16;62.63;;;32.90;;
5945;SDS011;2998;48.206;16.394;2023-01-09T08:50:44;64.27;;;31.77;;
5945;SDS011;2998;48.206;16.394;2023-01-09T08:53:12;60.10;;;32.03;;
5945;SDS011;2998;48.206;16.394;2023-01-09T08:55:40;70.20;;;33.90;;
5945;SDS011;2998;48.206;16.394;2023-01-09T08:58:08;59.30;;;30.97;;
5945;SDS011;2998;48.206;16.394;2023-01-09T09:00:38;64.70;;;21.67;;
5945;SDS011;2998;48.206;16.394;2023-01-09T09:03:06;54.00;;;24.97;;
5945;SDS011;2998;48.206;16.394;2023-01-09T09:05:35;40.83;;;25.90;;
5945;SDS011;2998;48.206;16.394;2023-01-09T09:08:03;13.90;;;10.80;;
5945;SDS011;2998;48.206;16.394;2023-01-09T09:10:32;18.50;;;13.30;;
5945;SDS011;2998;48.206;16.394;2023-01-09T09:13:00;10.70;;;9.70;;
5945;SDS011;2998;48.206;16.394;2023-01-09T09:15:28;7.30;;;6.60;;
5945;SDS011;2998;48.206;16.394;2023-01-09T09:17:58;9.70;;;8.03;;
5945;SDS011;2998;48.206;16.394;2023-01-09T09:20:28;7.30;;;6.60;;
5945;SDS011;2998;48.206;16.394;2023-01-09T09:22:57;6.70;;;5.57;;
5945;SDS011;2998;48.206;16.394;2023-01-09T09:25:25;7.60;;;6.90;;
5945;SDS011;2998;48.206;16.394;2023-01-09T09:27:53;5.97;;;5.50;;
5945;SDS011;2998;48.206;16.394;2023-01-09T09:30:22;5.00;;;4.50;;
5945;SDS011;2998;48.206;16.394;2023-01-09T09:32:51;5.03;;;4.60;;
5945;SDS011;2998;48.206;16.394;2023-01-09T09:35:20;8.63;;;6.93;;
5945;SDS011;2998;48.206;16.394;2023-01-09T09:37:52;7.20;;;5.90;;
5945;SDS011;2998;48.206;16.394;2023-01-09T09:40:24;5.30;;;4.80;;
5945;SDS011;2998;48.206;16.394;2023-01-09T09:43:03;5.47;;;3.83;;
5945;SDS011;2998;48.206;16.394;2023-01-09T09:46:03;13.23;;;6.43;;
5945;SDS011;2998;48.206;16.394;2023-01-09T09:48:35;3.27;;;3.07;;
5945;SDS011;2998;48.206;16.394;2023-01-09T09:54:12;4.53;;;2.53;;
5945;SDS011;2998;48.206;16.394;2023-01-09T09:56:41;3.27;;;3.00;;
5945;SDS011;2998;48.206;16.394;2023-01-09T09:59:14;3.00;;;2.80;;
5945;SDS011;2998;48.206;16.394;2023-01-09T10:01:45;5.10;;;4.70;;
5945;SDS011;2998;48.206;16.394;2023-01-09T10:04:19;4.83;;;4.50;;
5945;SDS011;2998;48.206;16.394;2023-01-09T10:06:50;4.47;;;4.10;;
5945;SDS011;2998;48.206;16.394;2023-01-09T10:09:22;6.00;;;5.50;;
5945;SDS011;2998;48.206;16.394;2023-01-09T10:11:57;2.07;;;1.97;;
5945;SDS011;2998;48.206;16.394;2023-01-09T10:14:26;3.80;;;3.50;;
5945;SDS011;2998;48.206;16.394;2023-01-09T10:20:04;6.57;;;4.33;;
5945;SDS011;2998;48.206;16.394;2023-01-09T10:22:41;6.20;;;5.73;;
5945;SDS011;2998;48.206;16.394;2023-01-09T10:25:16;2.63;;;2.47;;
5945;SDS011;2998;48.206;16.394;2023-01-09T10:27:54;2.10;;;2.00;;
5945;SDS011;2998;48.206;16.394;2023-01-09T10:30:30;2.00;;;1.90;;
5945;SDS011;2998;48.206;16.394;2023-01-09T10:33:05;2.60;;;2.40;;
5945;SDS011;2998;48.206;16.394;2023-01-09T10:35:49;2.00;;;1.90;;
5945;SDS011;2998;48.206;16.394;2023-01-09T10:38:37;4.03;;;3.70;;
5945;SDS011;2998;48.206;16.394;2023-01-09T10:41:07;2.70;;;2.50;;
5945;SDS011;2998;48.206;16.394;2023-01-09T10:43:41;6.80;;;3.70;;
5945;SDS011;2998;48.206;16.394;2023-01-09T10:46:18;6.47;;;2.60;;
5945;SDS011;2998;48.206;16.394;2023-01-09T10:48:49;3.40;;;2.50;;
5945;SDS011;2998;48.206;16.394;2023-01-09T10:51:21;2.20;;;2.10;;
5945;SDS011;2998;48.206;16.394;2023-01-09T10:53:53;3.13;;;2.90;;
5945;SDS011;2998;48.206;16.394;2023-01-09T10:56:22;2.70;;;2.50;;
5945;SDS011;2998;48.206;16.394;2023-01-09T10:58:51;2.07;;;1.97;;
5945;SDS011;2998;48.206;16.394;2023-01-09T11:01:23;2.73;;;2.53;;
5945;SDS011;2998;48.206;16.394;2023-01-09T11:03:52;1.93;;;1.83;;
5945;SDS011;2998;48.206;16.394;2023-01-09T11:06:21;2.60;;;2.40;;
5945;SDS011;2998;48.206;16.394;2023-01-09T11:08:53;2.73;;;2.63;;
5945;SDS011;2998;48.206;16.394;2023-01-09T11:11:32;3.53;;;2.57;;
5945;SDS011;2998;48.206;16.394;2023-01-09T11:14:06;1.50;;;1.40;;
5945;SDS011;2998;48.206;16.394;2023-01-09T11:16:49;1.23;;;1.13;;
5945;SDS011;2998;48.206;16.394;2023-01-09T11:19:18;2.77;;;2.53;;
5945;SDS011;2998;48.206;16.394;2023-01-09T11:21:46;1.70;;;1.60;;
5945;SDS011;2998;48.206;16.394;2023-01-09T11:24:25;2.10;;;2.00;;
5945;SDS011;2998;48.206;16.394;2023-01-09T11:27:16;2.60;;;2.17;;
5945;SDS011;2998;48.206;16.394;2023-01-09T11:32:47;1.43;;;1.43;;
5945;SDS011;2998;48.206;16.394;2023-01-09T11:35:17;3.70;;;2.10;;
5945;SDS011;2998;48.206;16.394;2023-01-09T11:37:47;5.40;;;1.87;;
5945;SDS011;2998;48.206;16.394;2023-01-09T11:40:19;22.60;;;3.80;;
5945;SDS011;2998;48.206;16.394;2023-01-09T11:43:00;1.70;;;1.60;;
5945;SDS011;2998;48.206;16.394;2023-01-09T11:45:32;9.10;;;2.67;;
5945;SDS011;2998;48.206;16.394;2023-01-09T11:48:01;1.20;;;1.10;;
5945;SDS011;2998;48.206;16.394;2023-01-09T11:50:30;2.37;;;1.90;;
5945;SDS011;2998;48.206;16.394;2023-01-09T11:53:10;3.43;;;3.13;;
5945;SDS011;2998;48.206;16.394;2023-01-09T11:55:40;2.63;;;2.53;;
5945;SDS011;2998;48.206;16.394;2023-01-09T11:58:10;6.20;;;3.47;;
5945;SDS011;2998;48.206;16.394;2023-01-09T12:00:41;2.80;;;2.60;;
5945;SDS011;2998;48.206;16.394;2023-01-09T12:03:16;2.30;;;2.13;;
5945;SDS011;2998;48.206;16.394;2023-01-09T12:05:52;4.63;;;3.90;;
5945;SDS011;2998;48.206;16.394;2023-01-09T12:08:25;2.50;;;2.40;;
5945;SDS011;2998;48.206;16.394;2023-01-09T12:11:03;2.70;;;2.50;;
5945;SDS011;2998;48.206;16.394;2023-01-09T12:16:51;1.77;;;1.67;;
5945;SDS011;2998;48.206;16.394;2023-01-09T12:22:21;2.00;;;1.90;;
5945;SDS011;2998;48.206;16.394;2023-01-09T12:25:03;2.67;;;2.57;;
5945;SDS011;2998;48.206;16.394;2023-01-09T12:27:42;3.90;;;3.70;;
5945;SDS011;2998;48.206;16.394;2023-01-09T12:30:24;4.43;;;4.13;;
5945;SDS011;2998;48.206;16.394;2023-01-09T12:33:06;5.00;;;4.60;;
5945;SDS011;2998;48.206;16.394;2023-01-09T12:35:43;13.57;;;9.30;;
5945;SDS011;2998;48.206;16.394;2023-01-09T12:38:18;6.23;;;5.70;;
5945;SDS011;2998;48.206;16.394;2023-01-09T12:41:27;3.90;;;3.60;;
5945;SDS011;2998;48.206;16.394;2023-01-09T12:44:15;6.30;;;3.53;;
5945;SDS011;2998;48.206;16.394;2023-01-09T12:47:04;1.80;;;1.50;;
5945;SDS011;2998;48.206;16.394;2023-01-09T12:49:41;3.83;;;3.60;;
5945;SDS011;2998;48.206;16.394;2023-01-09T12:52:15;6.63;;;6.03;;
5945;SDS011;2998;48.206;16.394;2023-01-09T12:54:46;1.53;;;1.43;;
5945;SDS011;2998;48.206;16.394;2023-01-09T12:57:18;2.90;;;2.70;;
5945;SDS011;2998;48.206;16.394;2023-01-09T12:59:51;5.43;;;4.07;;
5945;SDS011;2998;48.206;16.394;2023-01-09T13:02:22;2.63;;;2.53;;
5945;SDS011;2998;48.206;16.394;2023-01-09T13:04:55;11.63;;;8.80;;
5945;SDS011;2998;48.206;16.394;2023-01-09T13:07:26;2.60;;;2.50;;
5945;SDS011;2998;48.206;16.394;2023-01-09T13:09:57;3.67;;;3.47;;
5945;SDS011;2998;48.206;16.394;2023-01-09T13:12:26;1.80;;;1.70;;
5945;SDS011;2998;48.206;16.394;2023-01-09T13:15:00;5.13;;;3.83;;
5945;SDS011;2998;48.206;16.394;2023-01-09T13:17:32;2.30;;;2.10;;
5945;SDS011;2998;48.206;16.394;2023-01-09T13:20:03;2.13;;;1.77;;
5945;SDS011;2998;48.206;16.394;2023-01-09T13:22:35;2.63;;;1.60;;
5945;SDS011;2998;48.206;16.394;2023-01-09T13:25:13;2.97;;;2.77;;
5945;SDS011;2998;48.206;16.394;2023-01-09T13:27:58;2.90;;;2.43;;
5945;SDS011;2998;48.206;16.394;2023-01-09T13:30:35;2.07;;;1.80;;
5945;SDS011;2998;48.206;16.394;2023-01-09T13:33:13;23.93;;;11.20;;
5945;SDS011;2998;48.206;16.394;2023-01-09T13:35:51;1.60;;;1.50;;
5945;SDS011;2998;48.206;16.394;2023-01-09T13:38:21;1.93;;;1.33;;
5945;SDS011;2998;48.206;16.394;2023-01-09T13:41:00;2.40;;;1.40;;
5945;SDS011;2998;48.206;16.394;2023-01-09T13:43:56;1.50;;;1.40;;
5945;SDS011;2998;48.206;16.394;2023-01-09T13:46:37;5.47;;;3.57;;
5945;SDS011;2998;48.206;16.394;2023-01-09T13:51:58;3.57;;;1.10;;
5945;SDS011;2998;48.206;16.394;2023-01-09T13:57:33;5.17;;;4.40;;
5945;SDS011;2998;48.206;16.394;2023-01-09T14:03:16;2.17;;;1.97;;
5945;SDS011;2998;48.206;16.394;2023-01-09T14:06:08;9.93;;;4.90;;
5945;SDS011;2998;48.206;16.394;2023-01-09T14:08:47;1.97;;;1.70;;
5945;SDS011;2998;48.206;16.394;2023-01-09T14:11:17;10.30;;;2.27;;
5945;SDS011;2998;48.206;16.394;2023-01-09T14:13:51;2.00;;;1.57;;
5945;SDS011;2998;48.206;16.394;2023-01-09T14:16:35;2.53;;;2.43;;
5945;SDS011;2998;48.206;16.394;2023-01-09T14:19:07;6.50;;;3.50;;
5945;SDS011;2998;48.206;16.394;2023-01-09T14:21:50;4.23;;;3.40;;
5945;SDS011;2998;48.206;16.394;2023-01-09T14:24:24;13.50;;;6.90;;
5945;SDS011;2998;48.206;16.394;2023-01-09T14:26:54;4.40;;;4.00;;
5945;SDS011;2998;48.206;16.394;2023-01-09T14:35:14;2.40;;;2.20;;
5945;SDS011;2998;48.206;16.394;2023-01-09T14:37:55;2.50;;;1.37;;
5945;SDS011;2998;48.206;16.394;2023-01-09T14:40:28;1.30;;;1.20;;
5945;SDS011;2998;48.206;16.394;2023-01-09T14:42:58;4.40;;;1.60;;
5945;SDS011;2998;48.206;16.394;2023-01-09T14:45:34;1.37;;;1.27;;
5945;SDS011;2998;48.206;16.394;2023-01-09T14:48:03;1.43;;;0.80;;
5945;SDS011;2998;48.206;16.394;2023-01-09T14:50:34;4.47;;;2.13;;
5945;SDS011;2998;48.206;16.394;2023-01-09T14:53:05;0.90;;;0.90;;
5945;SDS011;2998;48.206;16.394;2023-01-09T14:55:35;8.80;;;6.37;;
5945;SDS011;2998;48.206;16.394;2023-01-09T14:58:10;0.90;;;0.90;;
5945;SDS011;2998;48.206;16.394;2023-01-09T15:00:45;6.03;;;5.30;;
5945;SDS011;2998;48.206;16.394;2023-01-09T15:03:15;3.67;;;1.80;;
5945;SDS011;2998;48.206;16.394;2023-01-09T15:05:45;1.43;;;1.33;;
5945;SDS011;2998;48.206;16.394;2023-01-09T15:08:13;1.97;;;1.87;;
5945;SDS011;2998;48.206;16.394;2023-01-09T15:10:44;2.33;;;1.60;;
5945;SDS011;2998;48.206;16.394;2023-01-09T15:13:13;2.10;;;2.00;;
5945;SDS011;2998;48.206;16.394;2023-01-09T15:15:44;2.80;;;2.60;;
5945;SDS011;2998;48.206;16.394;2023-01-09T15:18:17;3.00;;;2.73;;
5945;SDS011;2998;48.206;16.394;2023-01-09T15:20:51;2.53;;;2.23;;
5945;SDS011;2998;48.206;16.394;2023-01-09T15:23:23;2.23;;;1.40;;
5945;SDS011;2998;48.206;16.394;2023-01-09T15:25:54;4.10;;;1.63;;
5945;SDS011;2998;48.206;16.394;2023-01-09T15:28:24;1.70;;;1.60;;
5945;SDS011;2998;48.206;16.394;2023-01-09T15:30:55;1.40;;;1.30;;
5945;SDS011;2998;48.206;16.394;2023-01-09T15:33:26;1.70;;;1.60;;
5945;SDS011;2998;48.206;16.394;2023-01-09T15:35:55;3.27;;;3.07;;
5945;SDS011;2998;48.206;16.394;2023-01-09T15:38:28;2.53;;;2.27;;
5945;SDS011;2998;48.206;16.394;2023-01-09T15:40:58;7.60;;;2.20;;
5945;SDS011;2998;48.206;16.394;2023-01-09T15:43:28;4.93;;;1.27;;
5945;SDS011;2998;48.206;16.394;2023-01-09T15:45:55;3.10;;;2.80;;
5945;SDS011;2998;48.206;16.394;2023-01-09T15:48:24;2.40;;;2.10;;